Time;durP1;ratioP1;P1;durP2;ratioP2;P2;SDS_P1;SDS_P2;PMS_P1;PMS_P2;Temp;Humidity;BMP_temperature;BMP_pressure;BME280_temperature;BME280_humidity;BME280_pressure;Samples;Min_cycle;Max_cycle;Signal;HPM_P1;HPM_P2
2023/10/11 00:01:35;;;;;;;11.10;10.80;;;16.60;99.90;;;;;;5097672;28;20457;-68
2023/10/11 00:04:03;;;;;;;10.93;10.73;;;16.50;99.90;;;;;;5107582;28;20472;-67
2023/10/11 00:06:33;;;;;;;11.30;11.00;;;16.50;99.90;;;;;;5095174;27;20458;-67
2023/10/11 00:09:02;;;;;;;10.30;10.10;;;16.60;99.90;;;;;;5097297;28;20549;-67
2023/10/11 00:11:30;;;;;;;10.50;10.30;;;16.50;99.90;;;;;;5091986;28;20461;-67
2023/10/11 00:13:57;;;;;;;10.83;10.63;;;16.50;99.90;;;;;;5094174;28;20467;-67
2023/10/11 00:16:24;;;;;;;10.60;10.40;;;16.50;99.90;;;;;;5107177;28;20484;-68
2023/10/11 00:18:55;;;;;;;10.80;10.60;;;16.50;99.90;;;;;;5111224;28;20453;-68
2023/10/11 00:21:35;;;;;;;10.70;10.50;;;16.50;99.90;;;;;;5101706;28;20486;-68
2023/10/11 00:24:07;;;;;;;10.50;10.30;;;16.50;99.90;;;;;;5098170;28;20804;-67
2023/10/11 00:26:37;;;;;;;10.50;10.30;;;16.50;99.90;;;;;;5095097;28;20458;-67
2023/10/11 00:29:05;;;;;;;10.77;10.57;;;16.40;99.90;;;;;;5099716;28;20462;-67
2023/10/11 00:31:33;;;;;;;10.60;10.40;;;16.40;99.90;;;;;;5103160;28;20556;-67
2023/10/11 00:34:03;;;;;;;10.60;10.40;;;16.40;99.90;;;;;;5095588;28;20450;-67
2023/10/11 00:36:31;;;;;;;10.77;10.57;;;16.30;99.90;;;;;;5100967;28;20454;-67
2023/10/11 00:38:58;;;;;;;10.60;10.40;;;16.20;99.90;;;;;;5099297;28;20466;-67
2023/10/11 00:41:30;;;;;;;10.80;10.60;;;16.20;99.90;;;;;;5099342;28;20944;-67
2023/10/11 00:43:57;;;;;;;10.90;10.70;;;16.20;99.90;;;;;;5097480;28;20476;-68
2023/10/11 00:46:29;;;;;;;10.40;10.20;;;16.20;99.90;;;;;;5102134;28;20456;-67
2023/10/11 00:49:05;;;;;;;10.20;10.00;;;16.30;99.90;;;;;;5103112;28;20448;-67
2023/10/11 00:51:32;;;;;;;10.73;10.53;;;16.40;99.90;;;;;;5099541;28;20607;-68
2023/10/11 00:54:01;;;;;;;11.10;10.80;;;16.50;99.90;;;;;;5092385;28;20865;-68
2023/10/11 00:56:32;;;;;;;10.83;10.63;;;16.50;99.90;;;;;;5095225;28;20472;-67
2023/10/11 00:58:59;;;;;;;10.43;10.23;;;16.60;99.90;;;;;;5093946;28;20561;-68
2023/10/11 01:01:28;;;;;;;10.80;10.60;;;16.70;99.90;;;;;;5103863;28;20457;-67
2023/10/11 01:03:55;;;;;;;10.50;10.30;;;16.70;99.90;;;;;;5090176;28;20826;-67
2023/10/11 01:06:25;;;;;;;11.10;10.80;;;16.60;99.90;;;;;;5092901;28;20566;-67
2023/10/11 01:08:53;;;;;;;11.00;10.80;;;16.60;99.90;;;;;;5102099;28;20470;-68
2023/10/11 01:11:21;;;;;;;10.80;10.60;;;16.60;99.90;;;;;;5092567;28;20760;-67
2023/10/11 01:13:52;;;;;;;10.70;10.50;;;16.60;99.90;;;;;;5101577;28;20977;-68
2023/10/11 01:16:24;;;;;;;10.40;10.20;;;16.60;99.90;;;;;;5100410;28;20530;-68
2023/10/11 01:18:52;;;;;;;10.53;10.33;;;16.70;99.90;;;;;;5107994;28;20453;-68
2023/10/11 01:21:20;;;;;;;10.77;10.57;;;16.70;99.90;;;;;;5105490;28;20983;-67
2023/10/11 01:23:48;;;;;;;10.83;10.63;;;16.80;99.90;;;;;;5093443;28;20462;-68
2023/10/11 01:26:15;;;;;;;10.60;10.40;;;16.90;99.90;;;;;;5090844;28;20450;-67
2023/10/11 01:28:44;;;;;;;10.70;10.50;;;17.00;99.90;;;;;;5098740;28;20884;-67
2023/10/11 01:31:16;;;;;;;11.27;10.97;;;17.00;99.90;;;;;;5102397;28;20532;-67
2023/10/11 01:33:46;;;;;;;10.57;10.37;;;17.00;99.90;;;;;;5103502;28;20465;-67
2023/10/11 01:36:15;;;;;;;10.63;10.43;;;17.10;99.90;;;;;;5103228;28;20842;-68
2023/10/11 01:38:46;;;;;;;10.50;10.30;;;17.10;99.90;;;;;;5094061;28;20457;-68
2023/10/11 01:41:15;;;;;;;10.70;10.50;;;17.10;99.90;;;;;;5087688;28;20498;-66
2023/10/11 01:43:45;;;;;;;10.80;10.60;;;17.20;99.90;;;;;;5088870;28;20481;-68
2023/10/11 01:46:13;;;;;;;10.87;10.67;;;17.10;99.90;;;;;;5096415;28;20452;-67
2023/10/11 01:48:40;;;;;;;11.30;11.00;;;17.10;99.90;;;;;;5093018;28;20493;-67
2023/10/11 01:51:09;;;;;;;11.17;10.87;;;17.10;99.90;;;;;;5097581;28;20464;-69
2023/10/11 01:53:36;;;;;;;11.40;11.10;;;17.00;99.90;;;;;;5098675;28;20464;-68
2023/10/11 01:56:06;;;;;;;11.10;10.80;;;17.00;99.90;;;;;;5103750;28;20480;-67
2023/10/11 01:58:37;;;;;;;11.30;11.00;;;17.00;99.90;;;;;;5093128;28;20907;-67
2023/10/11 02:01:05;;;;;;;10.90;10.70;;;17.00;99.90;;;;;;5098758;28;21023;-67
2023/10/11 02:03:32;;;;;;;11.33;11.03;;;17.00;99.90;;;;;;5093424;28;20472;-67
2023/10/11 02:06:04;;;;;;;11.10;10.80;;;17.00;99.90;;;;;;5093680;28;20461;-68
2023/10/11 02:08:36;;;;;;;11.03;10.80;;;17.00;99.90;;;;;;5102700;28;20499;-68
2023/10/11 02:11:05;;;;;;;10.70;10.50;;;17.00;99.90;;;;;;5100454;28;20466;-67
2023/10/11 02:13:33;;;;;;;11.10;10.80;;;17.10;99.90;;;;;;5099586;28;21022;-68
2023/10/11 02:16:01;;;;;;;10.83;10.63;;;17.10;99.90;;;;;;5100146;28;20489;-68
2023/10/11 02:18:28;;;;;;;11.03;10.73;;;17.10;99.90;;;;;;5104589;28;20951;-67
2023/10/11 02:20:55;;;;;;;11.10;10.80;;;17.10;99.90;;;;;;5100187;28;20834;-67
2023/10/11 02:23:23;;;;;;;11.20;10.90;;;17.10;99.90;;;;;;5099829;28;20482;-68
2023/10/11 02:25:49;;;;;;;11.70;11.40;;;17.10;99.90;;;;;;5099778;28;20472;-67
2023/10/11 02:28:21;;;;;;;11.20;10.90;;;17.00;99.90;;;;;;5102438;28;20821;-67
2023/10/11 02:30:49;;;;;;;11.30;11.00;;;17.00;99.90;;;;;;5097445;28;20461;-67
2023/10/11 02:33:17;;;;;;;11.20;10.90;;;17.00;99.90;;;;;;5102731;28;20454;-67
2023/10/11 02:35:55;;;;;;;10.90;10.70;;;17.00;99.90;;;;;;5088635;28;20496;-67
2023/10/11 02:38:23;;;;;;;10.90;10.70;;;17.00;99.90;;;;;;5092730;28;20520;-67
2023/10/11 02:40:55;;;;;;;11.67;11.37;;;17.00;99.90;;;;;;5108296;28;20970;-67
2023/10/11 02:43:25;;;;;;;11.20;10.90;;;16.90;99.90;;;;;;5089373;28;21004;-68
2023/10/11 02:45:52;;;;;;;11.40;11.10;;;16.90;99.90;;;;;;5093354;28;20576;-67
2023/10/11 02:48:20;;;;;;;11.30;11.00;;;16.90;99.90;;;;;;5097009;28;20461;-67
2023/10/11 02:50:47;;;;;;;12.00;11.70;;;16.80;99.90;;;;;;5106378;28;20457;-67
2023/10/11 02:53:25;;;;;;;11.30;11.00;;;16.70;99.90;;;;;;5098593;28;20449;-68
2023/10/11 02:55:59;;;;;;;11.50;11.20;;;16.70;99.90;;;;;;5094147;28;20926;-67
2023/10/11 02:58:29;;;;;;;12.00;11.70;;;16.60;99.90;;;;;;5104085;28;20449;-67
2023/10/11 03:00:59;;;;;;;11.67;11.37;;;16.60;99.90;;;;;;5091675;28;20493;-68
2023/10/11 03:03:27;;;;;;;11.70;11.40;;;16.60;99.90;;;;;;5105159;28;20540;-67
2023/10/11 03:05:56;;;;;;;11.27;10.97;;;16.50;99.90;;;;;;5099415;28;20523;-68
2023/10/11 03:08:26;;;;;;;11.30;11.00;;;16.40;99.90;;;;;;5095398;28;20552;-67
2023/10/11 03:10:56;;;;;;;11.23;10.93;;;16.40;99.90;;;;;;5095739;28;20448;-67
2023/10/11 03:13:29;;;;;;;11.63;11.33;;;16.40;99.90;;;;;;5095211;28;20464;-67
2023/10/11 03:15:57;;;;;;;11.40;11.10;;;16.40;99.90;;;;;;5101465;28;21014;-67
2023/10/11 03:18:25;;;;;;;11.50;11.20;;;16.40;99.90;;;;;;5095764;28;20453;-67
2023/10/11 03:21:07;;;;;;;11.60;11.30;;;16.40;99.90;;;;;;5111012;28;20531;-67
2023/10/11 03:23:43;;;;;;;11.50;11.20;;;16.40;99.90;;;;;;5100667;28;20457;-67
2023/10/11 03:26:16;;;;;;;11.70;11.40;;;16.40;99.90;;;;;;5099374;28;20487;-67
2023/10/11 03:28:46;;;;;;;11.70;11.40;;;16.40;99.90;;;;;;5107372;28;21021;-68
2023/10/11 03:31:12;;;;;;;11.70;11.40;;;16.40;99.90;;;;;;5097319;28;20453;-67
2023/10/11 03:33:40;;;;;;;11.30;11.00;;;16.40;99.90;;;;;;5095187;28;20462;-67
2023/10/11 03:36:17;;;;;;;11.80;11.50;;;16.40;99.90;;;;;;5104923;28;20729;-68
2023/10/11 03:38:51;;;;;;;12.20;11.90;;;16.40;99.90;;;;;;5102355;28;20800;-68
2023/10/11 03:41:25;;;;;;;11.70;11.40;;;16.40;99.90;;;;;;5101984;28;20481;-68
2023/10/11 03:44:00;;;;;;;11.60;11.30;;;16.40;99.90;;;;;;5092344;28;20586;-68
2023/10/11 03:46:32;;;;;;;11.50;11.20;;;16.40;99.90;;;;;;5108391;28;21200;-68
2023/10/11 03:49:35;;;;;;;11.80;11.50;;;16.40;99.90;;;;;;5100209;28;20547;-67
2023/10/11 03:51:51;;;;;;;11.73;11.43;;;16.40;99.90;;;;;;5098132;28;20569;-67
2023/10/11 03:54:22;;;;;;;12.00;11.70;;;16.40;99.90;;;;;;5096763;28;20473;-67
2023/10/11 03:56:53;;;;;;;12.20;11.90;;;16.30;99.90;;;;;;5096771;28;20818;-68
2023/10/11 03:59:24;;;;;;;11.80;11.50;;;16.40;99.90;;;;;;5110858;28;20449;-68
2023/10/11 04:01:52;;;;;;;12.00;11.70;;;16.30;99.90;;;;;;5097868;28;20887;-67
2023/10/11 04:04:20;;;;;;;12.37;12.07;;;16.30;99.90;;;;;;5111216;28;20534;-67
2023/10/11 04:06:51;;;;;;;11.87;11.57;;;16.20;99.90;;;;;;5105838;28;20462;-67
2023/10/11 04:09:37;;;;;;;11.90;11.60;;;16.20;99.90;;;;;;5101952;28;20581;-68
2023/10/11 04:12:04;;;;;;;11.73;11.43;;;16.10;99.90;;;;;;5099843;28;20469;-67
2023/10/11 04:14:44;;;;;;;12.03;11.73;;;16.10;99.90;;;;;;5102943;28;20834;-67
2023/10/11 04:17:15;;;;;;;11.80;11.50;;;16.10;99.90;;;;;;5101327;28;20504;-67
2023/10/11 04:19:43;;;;;;;12.20;11.90;;;16.10;99.90;;;;;;5103525;28;20461;-68
2023/10/11 04:22:18;;;;;;;12.20;11.90;;;16.10;99.90;;;;;;5104522;28;20524;-69
2023/10/11 04:24:47;;;;;;;12.47;12.17;;;16.00;99.90;;;;;;5094271;28;20493;-67
2023/10/11 04:30:23;;;;;;;11.87;11.57;;;16.00;99.90;;;;;;5093097;28;20460;-68
2023/10/11 04:32:55;;;;;;;12.23;11.93;;;16.10;99.90;;;;;;5102059;28;20458;-67
2023/10/11 04:35:25;;;;;;;12.27;11.97;;;16.00;99.90;;;;;;5100888;28;20461;-68
2023/10/11 04:37:54;;;;;;;11.83;11.53;;;16.00;99.90;;;;;;5097270;28;20454;-67
2023/10/11 04:40:35;;;;;;;12.47;12.17;;;15.90;99.90;;;;;;5104622;28;20493;-67
2023/10/11 04:43:05;;;;;;;12.10;11.80;;;15.80;99.90;;;;;;5098069;28;20458;-67
2023/10/11 04:45:44;;;;;;;12.47;12.17;;;15.70;99.90;;;;;;5093195;28;20810;-67
2023/10/11 04:48:14;;;;;;;12.20;11.90;;;15.50;99.90;;;;;;5100730;28;20776;-67
2023/10/11 04:50:44;;;;;;;12.47;12.17;;;15.30;99.90;;;;;;5097047;28;21003;-67
2023/10/11 04:53:17;;;;;;;12.73;12.37;;;15.30;99.90;;;;;;5110776;28;20879;-68
2023/10/11 04:55:46;;;;;;;12.37;12.07;;;15.40;99.90;;;;;;5095637;28;20929;-68
2023/10/11 04:58:21;;;;;;;12.60;12.30;;;15.40;99.90;;;;;;5090997;28;20490;-68
2023/10/11 05:00:54;;;;;;;12.83;12.43;;;15.40;99.90;;;;;;5096391;27;20488;-67
2023/10/11 05:03:28;;;;;;;12.13;11.83;;;15.50;99.90;;;;;;5089771;28;20473;-67
2023/10/11 05:05:59;;;;;;;12.13;11.83;;;15.50;99.90;;;;;;5094733;28;20448;-68
2023/10/11 05:08:51;;;;;;;12.27;11.97;;;15.60;99.90;;;;;;5107578;28;20449;-67
2023/10/11 05:11:25;;;;;;;12.20;11.90;;;15.70;99.90;;;;;;5090271;28;20457;-67
2023/10/11 05:14:07;;;;;;;12.20;11.90;;;15.70;99.90;;;;;;5096457;28;20805;-67
2023/10/11 05:16:44;;;;;;;12.40;12.10;;;15.80;99.90;;;;;;5093186;28;20925;-67
2023/10/11 05:19:15;;;;;;;12.27;11.97;;;15.90;99.90;;;;;;5090946;28;20972;-67
2023/10/11 05:21:43;;;;;;;12.37;12.07;;;15.90;99.90;;;;;;5101102;28;20934;-68
2023/10/11 05:24:27;;;;;;;11.80;11.50;;;15.90;99.90;;;;;;5101203;28;20549;-67
2023/10/11 05:27:04;;;;;;;12.43;12.13;;;15.90;99.90;;;;;;5099453;28;20457;-67
2023/10/11 05:29:32;;;;;;;12.37;12.07;;;15.90;99.90;;;;;;5102332;28;20473;-68
2023/10/11 05:32:23;;;;;;;12.60;12.30;;;15.80;99.90;;;;;;5098919;28;20468;-67
2023/10/11 05:35:06;;;;;;;12.53;12.23;;;15.80;99.90;;;;;;5103398;28;20462;-68
2023/10/11 05:51:26;;;;;;;11.50;11.20;;;15.90;99.90;;;;;;5092890;28;20452;-67
2023/10/11 05:53:54;;;;;;;11.40;11.10;;;15.90;99.90;;;;;;5106781;28;20449;-68
2023/10/11 05:56:22;;;;;;;11.80;11.50;;;16.00;99.90;;;;;;5097586;28;20468;-67
2023/10/11 05:58:50;;;;;;;11.47;11.17;;;16.00;99.90;;;;;;5107128;28;20453;-68
2023/10/11 06:01:19;;;;;;;11.70;11.40;;;16.00;99.90;;;;;;5104310;28;20561;-68
2023/10/11 06:03:48;;;;;;;11.97;11.67;;;16.00;99.90;;;;;;5095903;28;20964;-67
2023/10/11 06:06:24;;;;;;;12.20;11.90;;;16.10;99.90;;;;;;5105307;28;20538;-68
2023/10/11 06:08:51;;;;;;;12.47;12.17;;;16.10;99.90;;;;;;5097980;28;20453;-67
2023/10/11 06:11:19;;;;;;;12.30;12.00;;;16.10;99.90;;;;;;5095120;28;20856;-68
2023/10/11 06:13:48;;;;;;;12.93;12.53;;;16.10;99.90;;;;;;5095872;28;21340;-68
2023/10/11 06:16:37;;;;;;;12.80;12.40;;;16.20;99.90;;;;;;5092108;28;20542;-67
2023/10/11 06:19:17;;;;;;;13.20;12.80;;;16.20;99.90;;;;;;5096494;28;20493;-67
2023/10/11 06:21:56;;;;;;;12.40;12.10;;;16.30;99.90;;;;;;5084637;28;20521;-68
2023/10/11 06:24:24;;;;;;;12.60;12.30;;;16.30;99.90;;;;;;5096667;28;20553;-67
2023/10/11 06:26:53;;;;;;;12.90;12.50;;;16.30;99.90;;;;;;5099435;28;20510;-67
2023/10/11 06:29:24;;;;;;;13.20;12.80;;;16.40;99.90;;;;;;5092999;28;20469;-67
2023/10/11 06:31:53;;;;;;;12.57;12.27;;;16.50;99.90;;;;;;5095630;28;20513;-68
2023/10/11 06:34:25;;;;;;;12.90;12.50;;;16.60;99.90;;;;;;5098696;28;20508;-68
2023/10/11 06:36:55;;;;;;;12.83;12.47;;;16.70;99.90;;;;;;5095833;28;20460;-67
2023/10/11 06:40:07;;;;;;;12.60;12.30;;;16.70;99.90;;;;;;5099883;28;20455;-67
2023/10/11 06:42:23;;;;;;;12.60;12.30;;;16.80;99.90;;;;;;5094508;28;20478;-67
2023/10/11 06:44:53;;;;;;;12.90;12.50;;;16.90;99.90;;;;;;5093829;28;20846;-68
2023/10/11 06:47:22;;;;;;;13.00;12.60;;;16.80;99.90;;;;;;5093664;28;20461;-67
2023/10/11 06:49:54;;;;;;;12.77;12.40;;;16.90;99.90;;;;;;5098284;28;20469;-67
2023/10/11 06:52:25;;;;;;;12.87;12.47;;;17.00;99.90;;;;;;5094115;28;20493;-67
2023/10/11 06:55:08;;;;;;;12.90;12.50;;;17.10;99.90;;;;;;5096361;28;20526;-68
2023/10/11 06:57:39;;;;;;;12.90;12.50;;;17.20;99.90;;;;;;5089116;28;20996;-67
2023/10/11 07:00:12;;;;;;;12.40;12.10;;;17.30;99.90;;;;;;5096161;28;20466;-67
2023/10/11 07:02:47;;;;;;;12.20;11.90;;;17.30;99.90;;;;;;5096728;28;20482;-68
2023/10/11 07:05:19;;;;;;;12.40;12.10;;;17.40;99.90;;;;;;5087158;28;21043;-68
2023/10/11 07:07:48;;;;;;;13.23;12.83;;;17.50;99.90;;;;;;5095599;28;20569;-67
2023/10/11 07:10:32;;;;;;;12.50;12.20;;;17.50;99.90;;;;;;5092052;28;20469;-68
2023/10/11 07:13:12;;;;;;;12.40;12.10;;;17.70;99.90;;;;;;5089966;28;20462;-68
2023/10/11 07:15:41;;;;;;;13.10;12.70;;;17.70;99.90;;;;;;5101075;28;20473;-68
2023/10/11 07:18:10;;;;;;;11.90;11.60;;;17.80;99.90;;;;;;5097795;28;20458;-68
2023/10/11 07:20:58;;;;;;;12.37;12.07;;;17.80;99.90;;;;;;5088867;28;20547;-68
2023/10/11 07:23:34;;;;;;;12.30;12.00;;;18.00;99.90;;;;;;5088154;28;20519;-68
2023/10/11 07:28:50;;;;;;;12.00;11.70;;;18.10;99.90;;;;;;5088917;28;20446;-68
2023/10/11 07:31:17;;;;;;;12.40;12.10;;;18.20;99.90;;;;;;5090628;28;20797;-68
2023/10/11 07:33:43;;;;;;;12.40;12.10;;;18.30;99.90;;;;;;5100073;28;20458;-67
2023/10/11 07:36:13;;;;;;;12.17;11.87;;;18.50;99.90;;;;;;5088901;28;20533;-68
2023/10/11 07:38:43;;;;;;;13.10;12.70;;;18.50;99.90;;;;;;5102572;28;20503;-67
2023/10/11 07:41:18;;;;;;;12.90;12.50;;;18.70;99.90;;;;;;5106256;28;20571;-68
2023/10/11 07:43:46;;;;;;;12.90;12.50;;;18.80;99.90;;;;;;5092785;28;20839;-68
2023/10/11 07:46:13;;;;;;;13.00;12.60;;;18.90;99.90;;;;;;5098767;28;20446;-68
2023/10/11 07:48:40;;;;;;;13.00;12.60;;;19.00;99.90;;;;;;5090017;28;20498;-68
2023/10/11 07:51:09;;;;;;;13.00;12.60;;;19.10;99.90;;;;;;5094881;28;20547;-68
2023/10/11 07:53:40;;;;;;;12.93;12.53;;;19.10;99.90;;;;;;5106494;28;20560;-67
2023/10/11 07:56:07;;;;;;;13.10;12.70;;;19.20;99.90;;;;;;5086854;28;20462;-67
2023/10/11 07:58:34;;;;;;;13.20;12.80;;;19.30;99.90;;;;;;5091222;28;20469;-67
2023/10/11 08:01:04;;;;;;;13.00;12.60;;;19.40;99.90;;;;;;5097266;27;20457;-67
2023/10/11 08:03:34;;;;;;;13.00;12.60;;;19.50;99.90;;;;;;5093639;27;20853;-67
2023/10/11 08:06:08;;;;;;;13.30;12.90;;;19.60;99.90;;;;;;5098193;28;20498;-67
2023/10/11 08:08:37;;;;;;;13.47;13.07;;;19.70;99.90;;;;;;5105830;28;20496;-68
2023/10/11 08:11:18;;;;;;;13.20;12.80;;;19.80;99.90;;;;;;5098297;28;20485;-66
2023/10/11 08:13:46;;;;;;;13.40;13.00;;;19.80;99.90;;;;;;5096477;28;20884;-68
2023/10/11 08:16:17;;;;;;;13.23;12.83;;;19.90;99.90;;;;;;5102472;28;20484;-68
2023/10/11 08:18:45;;;;;;;13.10;12.70;;;20.00;99.90;;;;;;5097002;28;20880;-68
2023/10/11 08:21:13;;;;;;;13.20;12.80;;;20.00;99.90;;;;;;5102990;28;20473;-67
2023/10/11 08:23:42;;;;;;;13.37;12.97;;;20.00;99.90;;;;;;5103228;28;20489;-67
2023/10/11 08:26:15;;;;;;;13.30;12.90;;;20.10;99.90;;;;;;5097613;28;20510;-67
2023/10/11 08:28:48;;;;;;;13.40;13.00;;;20.20;99.90;;;;;;5096591;28;20506;-66
2023/10/11 08:31:26;;;;;;;13.40;13.00;;;20.20;99.90;;;;;;5107072;28;20530;-67
2023/10/11 08:33:53;;;;;;;13.40;13.00;;;20.20;99.90;;;;;;5095230;28;20452;-67
2023/10/11 08:36:21;;;;;;;13.40;13.00;;;20.40;99.90;;;;;;5089604;28;20913;-67
2023/10/11 08:38:48;;;;;;;13.50;13.10;;;20.50;99.90;;;;;;5096023;27;20465;-67
2023/10/11 08:41:18;;;;;;;14.00;13.60;;;20.50;99.90;;;;;;5099479;28;20503;-67
2023/10/11 08:43:50;;;;;;;13.70;13.30;;;20.50;99.90;;;;;;5094120;28;20485;-68
2023/10/11 08:46:18;;;;;;;13.47;13.07;;;20.60;99.90;;;;;;5097650;28;20518;-68
2023/10/11 08:48:49;;;;;;;14.50;14.00;;;20.70;99.90;;;;;;5095145;28;20548;-67
2023/10/11 08:51:21;;;;;;;13.57;13.17;;;20.70;99.90;;;;;;5096511;28;20555;-67
2023/10/11 08:53:53;;;;;;;13.70;13.30;;;20.90;99.90;;;;;;5104916;28;20494;-67
2023/10/11 08:56:23;;;;;;;13.67;13.27;;;20.90;99.90;;;;;;5096352;28;21174;-67
2023/10/11 08:58:53;;;;;;;13.80;13.40;;;21.00;99.90;;;;;;5103971;28;20460;-67
2023/10/11 09:01:24;;;;;;;13.57;13.17;;;21.10;99.90;;;;;;5105305;28;20465;-67
2023/10/11 09:04:08;;;;;;;13.70;13.30;;;21.20;99.90;;;;;;5093875;28;21184;-68
2023/10/11 09:06:36;;;;;;;13.60;13.20;;;21.00;99.90;;;;;;5096083;28;20464;-67
2023/10/11 09:09:04;;;;;;;13.97;13.57;;;21.20;99.90;;;;;;5092427;28;20489;-68
2023/10/11 09:11:32;;;;;;;13.90;13.50;;;21.30;99.90;;;;;;5093489;28;20540;-68
2023/10/11 09:14:13;;;;;;;13.90;13.50;;;21.30;99.90;;;;;;5097399;28;20457;-67
2023/10/11 09:16:41;;;;;;;13.80;13.40;;;21.40;99.90;;;;;;5099496;28;20472;-67
2023/10/11 09:19:10;;;;;;;14.00;13.60;;;21.50;99.90;;;;;;5093418;28;20461;-68
2023/10/11 09:21:38;;;;;;;13.70;13.30;;;21.40;99.90;;;;;;5095485;28;20913;-67
2023/10/11 09:24:23;;;;;;;13.90;13.50;;;21.60;99.90;;;;;;5094338;28;20837;-68
2023/10/11 09:27:18;;;;;;;14.60;14.10;;;21.80;99.90;;;;;;5101047;28;21094;-67
2023/10/11 09:29:48;;;;;;;13.73;13.33;;;21.70;99.90;;;;;;5099575;28;20444;-68
2023/10/11 09:32:19;;;;;;;13.67;13.27;;;21.60;99.90;;;;;;5096681;28;20468;-67
2023/10/11 09:34:46;;;;;;;13.70;13.30;;;21.60;99.90;;;;;;5090024;28;20472;-67
2023/10/11 09:37:14;;;;;;;14.00;13.60;;;21.70;99.90;;;;;;5099101;27;20978;-68
2023/10/11 09:39:44;;;;;;;13.73;13.33;;;21.70;99.90;;;;;;5107186;28;20462;-68
2023/10/11 09:42:16;;;;;;;14.00;13.60;;;21.60;99.90;;;;;;5094168;28;20702;-67
2023/10/11 09:44:47;;;;;;;13.70;13.30;;;21.60;99.90;;;;;;5099499;28;20474;-67
2023/10/11 09:47:17;;;;;;;13.50;13.10;;;21.70;99.90;;;;;;5090402;28;20552;-67
2023/10/11 09:49:46;;;;;;;13.50;13.10;;;21.80;99.90;;;;;;5099389;28;20541;-67
2023/10/11 09:52:16;;;;;;;13.80;13.40;;;21.90;99.90;;;;;;5096326;28;20465;-67
2023/10/11 09:54:44;;;;;;;13.80;13.40;;;22.10;99.90;;;;;;5087329;28;21048;-67
2023/10/11 09:57:23;;;;;;;13.80;13.40;;;22.40;99.90;;;;;;5089334;28;20462;-67
2023/10/11 09:59:59;;;;;;;13.90;13.50;;;22.90;99.90;;;;;;5101650;28;20457;-68
2023/10/11 10:02:30;;;;;;;13.90;13.50;;;23.20;99.90;;;;;;5101075;28;20488;-68
2023/10/11 10:04:58;;;;;;;13.90;13.50;;;23.30;99.90;;;;;;5088942;28;20469;-68
2023/10/11 10:07:32;;;;;;;14.10;13.70;;;23.10;99.90;;;;;;5084120;28;20462;-67
2023/10/11 10:10:01;;;;;;;13.90;13.50;;;23.30;99.90;;;;;;5085294;28;20454;-68
2023/10/11 10:12:33;;;;;;;14.70;14.30;;;23.30;99.90;;;;;;5094358;28;20465;-69
2023/10/11 10:15:09;;;;;;;13.60;13.20;;;23.50;99.90;;;;;;5091731;28;20488;-67
2023/10/11 10:17:38;;;;;;;13.93;13.53;;;23.70;99.90;;;;;;5091121;28;21060;-68
2023/10/11 10:20:42;;;;;;;13.63;13.23;;;24.00;99.90;;;;;;5099437;28;20466;-68
2023/10/11 10:23:26;;;;;;;13.90;13.50;;;24.30;99.90;;;;;;5103932;28;20495;-67
2023/10/11 10:26:38;;;;;;;13.80;13.40;;;24.30;99.90;;;;;;5103268;28;20959;-67
2023/10/11 10:29:12;;;;;;;13.60;13.20;;;24.40;99.90;;;;;;5097138;28;20492;-68
2023/10/11 10:32:07;;;;;;;13.70;13.30;;;24.40;99.90;;;;;;5092346;28;20825;-67
2023/10/11 10:34:34;;;;;;;14.20;13.80;;;24.90;99.90;;;;;;5105472;28;20467;-68
2023/10/11 10:37:07;;;;;;;14.30;13.90;;;24.80;99.90;;;;;;5098484;28;21161;-68
2023/10/11 10:39:36;;;;;;;13.70;13.30;;;24.90;99.90;;;;;;5101354;28;20450;-68
2023/10/11 10:42:15;;;;;;;13.60;13.20;;;24.70;99.90;;;;;;5099147;28;20489;-68
2023/10/11 10:44:55;;;;;;;13.80;13.40;;;24.30;99.90;;;;;;5103025;28;20575;-68
2023/10/11 10:47:32;;;;;;;13.43;13.03;;;24.60;99.90;;;;;;5101773;28;20836;-67
2023/10/11 10:50:06;;;;;;;13.80;13.40;;;24.90;99.90;;;;;;5098679;28;20457;-68
2023/10/11 10:52:32;;;;;;;14.10;13.70;;;24.60;99.90;;;;;;5098940;28;20488;-68
2023/10/11 10:55:03;;;;;;;14.27;13.87;;;24.70;99.90;;;;;;5101833;28;20542;-68
2023/10/11 10:57:31;;;;;;;14.37;13.97;;;24.60;99.90;;;;;;5104529;28;20876;-68
2023/10/11 11:00:05;;;;;;;14.03;13.63;;;24.70;99.90;;;;;;5105592;28;20493;-68
2023/10/11 11:02:32;;;;;;;14.10;13.70;;;24.70;99.90;;;;;;5101269;28;21119;-68
2023/10/11 11:05:01;;;;;;;13.80;13.40;;;24.70;99.90;;;;;;5098183;28;20552;-68
2023/10/11 11:07:32;;;;;;;14.47;14.07;;;24.40;99.90;;;;;;5098620;28;20490;-68
2023/10/11 11:09:58;;;;;;;14.20;13.80;;;24.40;99.90;;;;;;5098406;28;20462;-68
2023/10/11 11:12:28;;;;;;;14.70;14.20;;;24.60;99.90;;;;;;5099946;28;20461;-67
2023/10/11 11:14:58;;;;;;;15.53;15.03;;;25.20;99.90;;;;;;5102159;28;20539;-68
2023/10/11 11:17:46;;;;;;;14.90;14.40;;;25.50;99.90;;;;;;5102172;28;20983;-68
2023/10/11 11:20:13;;;;;;;15.10;14.60;;;25.30;99.90;;;;;;5098996;28;20457;-68
2023/10/11 11:22:40;;;;;;;14.47;14.07;;;25.40;99.90;;;;;;5087536;28;20486;-68
2023/10/11 11:25:26;;;;;;;14.63;14.23;;;25.50;99.90;;;;;;5099259;28;20866;-68
2023/10/11 11:28:14;;;;;;;14.30;13.90;;;25.70;99.90;;;;;;5100034;28;20457;-69
2023/10/11 11:30:43;;;;;;;14.40;14.00;;;25.90;99.90;;;;;;5101835;28;20521;-68
2023/10/11 11:33:28;;;;;;;15.10;14.60;;;26.00;99.90;;;;;;5101861;28;20457;-68
2023/10/11 11:35:55;;;;;;;14.20;13.80;;;26.20;99.90;;;;;;5103379;28;20952;-68
2023/10/11 11:38:23;;;;;;;14.57;14.17;;;26.60;99.90;;;;;;5099696;28;20465;-68
2023/10/11 11:40:51;;;;;;;14.43;14.03;;;26.80;99.90;;;;;;5095390;28;20474;-68
2023/10/11 11:43:20;;;;;;;14.67;14.27;;;26.90;99.90;;;;;;5103681;28;20489;-68
2023/10/11 11:45:47;;;;;;;14.50;14.10;;;27.30;99.90;;;;;;5095292;28;20942;-68
2023/10/11 11:48:23;;;;;;;14.50;14.10;;;27.30;99.90;;;;;;5108637;28;20811;-68
2023/10/11 11:50:50;;;;;;;15.03;14.53;;;26.70;99.90;;;;;;5101981;28;20465;-68
2023/10/11 11:53:18;;;;;;;15.00;14.50;;;26.60;99.90;;;;;;5106976;28;20940;-68
2023/10/11 11:55:45;;;;;;;14.93;14.43;;;26.60;99.90;;;;;;5101803;28;20515;-68
2023/10/11 11:58:11;;;;;;;14.10;13.70;;;26.60;99.90;;;;;;5101386;28;20457;-68
2023/10/11 12:00:38;;;;;;;14.17;13.77;;;26.50;99.90;;;;;;5103879;28;20461;-68
2023/10/11 12:03:06;;;;;;;14.10;13.70;;;27.00;99.90;;;;;;5103874;28;20480;-68
2023/10/11 12:05:40;;;;;;;14.20;13.80;;;26.50;99.90;;;;;;5100968;27;20518;-68
2023/10/11 12:08:18;;;;;;;13.13;12.83;;;26.30;99.90;;;;;;5097936;28;20906;-68
2023/10/11 12:10:47;;;;;;;13.00;12.70;;;26.60;99.90;;;;;;5107089;28;20453;-68
2023/10/11 12:13:22;;;;;;;12.83;12.53;;;26.40;99.90;;;;;;5093684;27;20466;-68
2023/10/11 12:15:54;;;;;;;14.20;13.80;;;26.50;99.90;;;;;;5099651;28;20472;-68
2023/10/11 12:18:32;;;;;;;13.87;13.47;;;26.50;99.90;;;;;;5105972;28;20971;-68
2023/10/11 12:20:59;;;;;;;13.50;13.10;;;26.50;99.90;;;;;;5100658;28;20959;-68
2023/10/11 12:23:28;;;;;;;13.63;13.23;;;26.60;99.90;;;;;;5096526;28;20500;-68
2023/10/11 12:25:55;;;;;;;13.43;13.03;;;26.60;99.90;;;;;;5090070;28;20548;-68
2023/10/11 12:28:25;;;;;;;13.30;12.90;;;26.80;99.90;;;;;;5105317;28;20461;-68
2023/10/11 12:30:54;;;;;;;13.20;12.90;;;26.90;99.90;;;;;;5108834;28;20457;-68
2023/10/11 12:33:22;;;;;;;13.40;13.00;;;27.10;99.90;;;;;;5104347;28;20461;-69
2023/10/11 12:35:49;;;;;;;13.37;12.97;;;27.00;99.90;;;;;;5098764;28;20529;-68
2023/10/11 12:38:16;;;;;;;13.60;13.20;;;27.00;99.90;;;;;;5101766;27;20919;-68
2023/10/11 12:40:45;;;;;;;14.33;13.93;;;27.00;99.90;;;;;;5100565;28;21002;-68
2023/10/11 12:43:12;;;;;;;14.13;13.73;;;27.30;99.90;;;;;;5102519;28;20817;-69
2023/10/11 12:45:42;;;;;;;13.93;13.53;;;26.90;99.90;;;;;;5102651;28;20461;-68
2023/10/11 12:48:10;;;;;;;14.13;13.73;;;27.20;99.90;;;;;;5106747;28;20469;-68
2023/10/11 12:50:37;;;;;;;15.03;14.63;;;27.10;99.90;;;;;;5101343;28;20523;-68
2023/10/11 12:53:10;;;;;;;14.63;14.23;;;27.20;99.90;;;;;;5095921;28;20489;-68
2023/10/11 12:55:41;;;;;;;14.70;14.30;;;27.30;99.90;;;;;;5099962;28;20454;-69
2023/10/11 12:58:12;;;;;;;14.97;14.57;;;27.00;99.90;;;;;;5097697;28;20963;-68
2023/10/11 13:00:48;;;;;;;14.63;14.23;;;27.00;99.90;;;;;;5104787;28;20460;-68
2023/10/11 13:03:25;;;;;;;15.00;14.60;;;27.00;99.90;;;;;;5098351;28;20508;-68
2023/10/11 13:05:52;;;;;;;15.20;14.80;;;27.40;99.90;;;;;;5106592;28;20462;-68
2023/10/11 13:08:24;;;;;;;15.53;15.03;;;27.70;99.90;;;;;;5094103;28;20466;-68
2023/10/11 13:10:51;;;;;;;14.13;13.73;;;28.00;99.90;;;;;;5106145;28;20457;-68